sensor_id;sensor_type;location;lat;lon;timestamp;temperature;humidity
41668;DHT22;27356;50.920;5.350;2023-03-23T00:02:28;13.50;99.90
41668;DHT22;27356;50.920;5.350;2023-03-23T00:04:54;13.50;99.90
41668;DHT22;27356;50.920;5.350;2023-03-23T00:07:21;13.40;99.90
41668;DHT22;27356;50.920;5.350;2023-03-23T00:09:48;13.30;99.90
41668;DHT22;27356;50.920;5.350;2023-03-23T00:12:27;13.30;99.90
41668;DHT22;27356;50.920;5.350;2023-03-23T00:15:00;13.40;99.90
41668;DHT22;27356;50.920;5.350;2023-03-23T00:17:28;13.40;99.90
41668;DHT22;27356;50.920;5.350;2023-03-23T00:19:54;13.40;99.90
41668;DHT22;27356;50.920;5.350;2023-03-23T00:22:19;13.30;99.90
41668;DHT22;27356;50.920;5.350;2023-03-23T00:24:47;13.40;99.90
41668;DHT22;27356;50.920;5.350;2023-03-23T00:27:16;13.40;99.90
41668;DHT22;27356;50.920;5.350;2023-03-23T00:29:42;13.50;99.90
41668;DHT22;27356;50.920;5.350;2023-03-23T00:32:10;13.50;99.90
41668;DHT22;27356;50.920;5.350;2023-03-23T00:34:40;13.50;99.90
41668;DHT22;27356;50.920;5.350;2023-03-23T00:37:07;13.50;99.90
41668;DHT22;27356;50.920;5.350;2023-03-23T00:39:33;13.50;99.90
41668;DHT22;27356;50.920;5.350;2023-03-23T00:41:59;13.60;99.90
41668;DHT22;27356;50.920;5.350;2023-03-23T00:44:28;13.60;99.90
41668;DHT22;27356;50.920;5.350;2023-03-23T00:46:55;13.50;99.90
41668;DHT22;27356;50.920;5.350;2023-03-23T00:49:23;13.50;99.90
41668;DHT22;27356;50.920;5.350;2023-03-23T00:51:57;13.50;99.90
41668;DHT22;27356;50.920;5.350;2023-03-23T00:54:24;13.60;99.90
41668;DHT22;27356;50.920;5.350;2023-03-23T00:56:50;13.50;99.90
41668;DHT22;27356;50.920;5.350;2023-03-23T00:59:16;13.50;99.90
41668;DHT22;27356;50.920;5.350;2023-03-23T01:01:42;13.40;99.90
41668;DHT22;27356;50.920;5.350;2023-03-23T01:04:08;13.40;99.90
41668;DHT22;27356;50.920;5.350;2023-03-23T01:06:40;13.40;99.90
41668;DHT22;27356;50.920;5.350;2023-03-23T01:09:12;13.40;99.90
41668;DHT22;27356;50.920;5.350;2023-03-23T01:11:46;13.40;99.90
41668;DHT22;27356;50.920;5.350;2023-03-23T01:14:13;13.40;99.90
41668;DHT22;27356;50.920;5.350;2023-03-23T01:16:40;13.40;99.90
41668;DHT22;27356;50.920;5.350;2023-03-23T01:19:05;13.50;99.90
41668;DHT22;27356;50.920;5.350;2023-03-23T01:21:31;13.30;99.90
41668;DHT22;27356;50.920;5.350;2023-03-23T01:23:57;13.30;99.90
41668;DHT22;27356;50.920;5.350;2023-03-23T01:26:25;13.40;99.90
41668;DHT22;27356;50.920;5.350;2023-03-23T01:28:51;13.30;99.90
41668;DHT22;27356;50.920;5.350;2023-03-23T01:31:20;13.30;99.90
41668;DHT22;27356;50.920;5.350;2023-03-23T01:33:47;13.20;99.90
41668;DHT22;27356;50.920;5.350;2023-03-23T01:36:15;13.30;99.90
41668;DHT22;27356;50.920;5.350;2023-03-23T01:38:43;13.20;99.90
41668;DHT22;27356;50.920;5.350;2023-03-23T01:41:10;13.30;99.90
41668;DHT22;27356;50.920;5.350;2023-03-23T01:43:52;13.20;99.90
41668;DHT22;27356;50.920;5.350;2023-03-23T01:46:18;13.20;99.90
41668;DHT22;27356;50.920;5.350;2023-03-23T01:48:44;13.10;99.90
41668;DHT22;27356;50.920;5.350;2023-03-23T01:51:15;13.10;99.90
41668;DHT22;27356;50.920;5.350;2023-03-23T01:53:48;13.20;99.90
41668;DHT22;27356;50.920;5.350;2023-03-23T01:56:17;13.20;99.90
41668;DHT22;27356;50.920;5.350;2023-03-23T01:58:44;13.10;99.90
41668;DHT22;27356;50.920;5.350;2023-03-23T02:01:13;13.10;99.90
41668;DHT22;27356;50.920;5.350;2023-03-23T02:03:44;13.10;99.90
41668;DHT22;27356;50.920;5.350;2023-03-23T02:06:11;13.20;99.90
41668;DHT22;27356;50.920;5.350;2023-03-23T02:08:38;13.30;99.90
41668;DHT22;27356;50.920;5.350;2023-03-23T02:11:17;13.20;99.90
41668;DHT22;27356;50.920;5.350;2023-03-23T02:13:44;13.10;99.90
41668;DHT22;27356;50.920;5.350;2023-03-23T02:39:13;13.20;99.90
41668;DHT22;27356;50.920;5.350;2023-03-23T02:41:47;13.20;99.90
41668;DHT22;27356;50.920;5.350;2023-03-23T02:44:15;13.20;99.90
41668;DHT22;27356;50.920;5.350;2023-03-23T02:46:42;13.20;99.90
41668;DHT22;27356;50.920;5.350;2023-03-23T02:49:11;13.20;99.90
41668;DHT22;27356;50.920;5.350;2023-03-23T02:51:38;13.30;99.90
41668;DHT22;27356;50.920;5.350;2023-03-23T02:54:04;13.20;99.90
41668;DHT22;27356;50.920;5.350;2023-03-23T02:56:31;13.20;99.90
41668;DHT22;27356;50.920;5.350;2023-03-23T02:58:58;13.20;99.90
41668;DHT22;27356;50.920;5.350;2023-03-23T03:04:03;13.10;99.90
41668;DHT22;27356;50.920;5.350;2023-03-23T03:10:01;13.20;99.90
41668;DHT22;27356;50.920;5.350;2023-03-23T03:15:31;13.20;99.90
41668;DHT22;27356;50.920;5.350;2023-03-23T03:18:00;13.30;99.90
41668;DHT22;27356;50.920;5.350;2023-03-23T03:20:30;13.20;99.90
41668;DHT22;27356;50.920;5.350;2023-03-23T03:22:57;13.20;99.90
41668;DHT22;27356;50.920;5.350;2023-03-23T03:25:25;13.20;99.90
41668;DHT22;27356;50.920;5.350;2023-03-23T03:27:53;13.20;99.90
41668;DHT22;27356;50.920;5.350;2023-03-23T03:30:22;13.20;99.90
41668;DHT22;27356;50.920;5.350;2023-03-23T03:32:52;13.20;99.90
41668;DHT22;27356;50.920;5.350;2023-03-23T03:35:23;13.30;99.90
41668;DHT22;27356;50.920;5.350;2023-03-23T03:37:49;13.30;99.90
41668;DHT22;27356;50.920;5.350;2023-03-23T03:40:18;13.30;99.90
41668;DHT22;27356;50.920;5.350;2023-03-23T03:42:45;13.20;99.90
41668;DHT22;27356;50.920;5.350;2023-03-23T03:45:14;13.10;99.90
41668;DHT22;27356;50.920;5.350;2023-03-23T03:47:40;13.10;99.90
41668;DHT22;27356;50.920;5.350;2023-03-23T03:50:06;13.00;99.90
41668;DHT22;27356;50.920;5.350;2023-03-23T03:52:33;13.00;99.90
41668;DHT22;27356;50.920;5.350;2023-03-23T03:54:59;12.90;99.90
41668;DHT22;27356;50.920;5.350;2023-03-23T03:57:24;13.10;99.90
41668;DHT22;27356;50.920;5.350;2023-03-23T03:59:50;13.10;99.90
41668;DHT22;27356;50.920;5.350;2023-03-23T04:02:17;13.10;99.90
41668;DHT22;27356;50.920;5.350;2023-03-23T04:04:49;13.00;99.90
41668;DHT22;27356;50.920;5.350;2023-03-23T04:07:17;13.10;99.90
41668;DHT22;27356;50.920;5.350;2023-03-23T04:09:45;13.20;99.90
41668;DHT22;27356;50.920;5.350;2023-03-23T04:12:15;13.20;99.90
41668;DHT22;27356;50.920;5.350;2023-03-23T04:14:41;13.10;99.90
41668;DHT22;27356;50.920;5.350;2023-03-23T04:17:06;13.20;99.90
41668;DHT22;27356;50.920;5.350;2023-03-23T04:19:35;13.10;99.90
41668;DHT22;27356;50.920;5.350;2023-03-23T04:22:03;13.00;99.90
41668;DHT22;27356;50.920;5.350;2023-03-23T04:24:29;13.00;99.90
41668;DHT22;27356;50.920;5.350;2023-03-23T04:26:57;13.10;99.90
41668;DHT22;27356;50.920;5.350;2023-03-23T04:29:24;13.10;99.90
41668;DHT22;27356;50.920;5.350;2023-03-23T04:32:08;13.10;99.90
41668;DHT22;27356;50.920;5.350;2023-03-23T04:34:34;13.20;99.90
41668;DHT22;27356;50.920;5.350;2023-03-23T04:37:00;13.30;99.90
41668;DHT22;27356;50.920;5.350;2023-03-23T04:39:26;13.20;99.90
41668;DHT22;27356;50.920;5.350;2023-03-23T04:41:54;13.10;99.90
41668;DHT22;27356;50.920;5.350;2023-03-23T04:44:20;13.00;99.90
41668;DHT22;27356;50.920;5.350;2023-03-23T04:46:46;13.00;99.90
41668;DHT22;27356;50.920;5.350;2023-03-23T04:49:15;13.00;99.90
41668;DHT22;27356;50.920;5.350;2023-03-23T04:51:46;13.00;99.90
41668;DHT22;27356;50.920;5.350;2023-03-23T04:54:12;13.00;99.90
41668;DHT22;27356;50.920;5.350;2023-03-23T04:56:38;13.10;99.90
41668;DHT22;27356;50.920;5.350;2023-03-23T04:59:04;13.00;99.90
41668;DHT22;27356;50.920;5.350;2023-03-23T05:01:31;12.90;99.90
41668;DHT22;27356;50.920;5.350;2023-03-23T05:03:59;12.90;99.90
41668;DHT22;27356;50.920;5.350;2023-03-23T05:06:25;12.90;99.90
41668;DHT22;27356;50.920;5.350;2023-03-23T05:08:51;13.00;99.90
41668;DHT22;27356;50.920;5.350;2023-03-23T05:11:17;12.90;99.90
41668;DHT22;27356;50.920;5.350;2023-03-23T05:13:42;13.00;99.90
41668;DHT22;27356;50.920;5.350;2023-03-23T05:16:09;12.90;99.90
41668;DHT22;27356;50.920;5.350;2023-03-23T05:18:35;12.80;99.90
41668;DHT22;27356;50.920;5.350;2023-03-23T05:21:02;12.90;99.90
41668;DHT22;27356;50.920;5.350;2023-03-23T05:23:29;12.90;99.90
41668;DHT22;27356;50.920;5.350;2023-03-23T05:25:59;12.90;99.90
41668;DHT22;27356;50.920;5.350;2023-03-23T05:28:27;12.90;99.90
41668;DHT22;27356;50.920;5.350;2023-03-23T05:30:54;12.80;99.90
41668;DHT22;27356;50.920;5.350;2023-03-23T05:33:21;12.80;99.90
41668;DHT22;27356;50.920;5.350;2023-03-23T05:35:47;12.80;99.90
41668;DHT22;27356;50.920;5.350;2023-03-23T05:38:14;12.80;99.90
41668;DHT22;27356;50.920;5.350;2023-03-23T05:40:41;12.80;99.90
41668;DHT22;27356;50.920;5.350;2023-03-23T05:43:08;12.80;99.90
41668;DHT22;27356;50.920;5.350;2023-03-23T05:45:34;12.70;99.90
41668;DHT22;27356;50.920;5.350;2023-03-23T05:48:00;12.70;99.90
41668;DHT22;27356;50.920;5.350;2023-03-23T05:50:26;12.80;99.90
41668;DHT22;27356;50.920;5.350;2023-03-23T05:52:54;12.80;99.90
41668;DHT22;27356;50.920;5.350;2023-03-23T05:55:20;12.80;99.90
41668;DHT22;27356;50.920;5.350;2023-03-23T05:57:46;12.80;99.90
41668;DHT22;27356;50.920;5.350;2023-03-23T06:00:12;12.80;99.90
41668;DHT22;27356;50.920;5.350;2023-03-23T06:02:46;12.80;99.90
41668;DHT22;27356;50.920;5.350;2023-03-23T06:05:12;12.80;99.90
41668;DHT22;27356;50.920;5.350;2023-03-23T06:07:39;12.90;99.90
41668;DHT22;27356;50.920;5.350;2023-03-23T06:10:06;13.00;99.90
41668;DHT22;27356;50.920;5.350;2023-03-23T06:12:32;13.00;99.90
41668;DHT22;27356;50.920;5.350;2023-03-23T06:14:58;13.10;99.90
41668;DHT22;27356;50.920;5.350;2023-03-23T06:17:24;13.10;99.90
41668;DHT22;27356;50.920;5.350;2023-03-23T06:19:50;13.00;99.90
41668;DHT22;27356;50.920;5.350;2023-03-23T06:22:17;13.00;99.90
41668;DHT22;27356;50.920;5.350;2023-03-23T06:24:43;12.90;99.90
41668;DHT22;27356;50.920;5.350;2023-03-23T06:27:10;13.00;99.90
41668;DHT22;27356;50.920;5.350;2023-03-23T06:29:36;13.10;99.90
41668;DHT22;27356;50.920;5.350;2023-03-23T06:32:04;13.10;99.90
41668;DHT22;27356;50.920;5.350;2023-03-23T06:34:30;13.10;99.90
41668;DHT22;27356;50.920;5.350;2023-03-23T06:36:58;13.10;99.90
41668;DHT22;27356;50.920;5.350;2023-03-23T06:39:24;13.20;99.90
41668;DHT22;27356;50.920;5.350;2023-03-23T06:41:50;13.10;99.90
41668;DHT22;27356;50.920;5.350;2023-03-23T06:44:16;13.00;99.90
41668;DHT22;27356;50.920;5.350;2023-03-23T06:46:42;13.10;99.90
41668;DHT22;27356;50.920;5.350;2023-03-23T06:49:08;13.00;99.90
41668;DHT22;27356;50.920;5.350;2023-03-23T06:51:34;13.00;99.90
41668;DHT22;27356;50.920;5.350;2023-03-23T06:54:00;13.10;99.90
41668;DHT22;27356;50.920;5.350;2023-03-23T06:56:26;13.20;99.90
41668;DHT22;27356;50.920;5.350;2023-03-23T06:58:52;13.30;99.90
41668;DHT22;27356;50.920;5.350;2023-03-23T07:01:18;13.40;99.90
41668;DHT22;27356;50.920;5.350;2023-03-23T07:03:44;13.30;99.90
41668;DHT22;27356;50.920;5.350;2023-03-23T07:06:10;13.30;99.90
41668;DHT22;27356;50.920;5.350;2023-03-23T07:08:36;13.30;99.90
41668;DHT22;27356;50.920;5.350;2023-03-23T07:11:02;13.30;99.90
41668;DHT22;27356;50.920;5.350;2023-03-23T07:13:28;13.30;99.90
41668;DHT22;27356;50.920;5.350;2023-03-23T07:15:54;13.30;99.90
41668;DHT22;27356;50.920;5.350;2023-03-23T07:18:21;13.40;99.90
41668;DHT22;27356;50.920;5.350;2023-03-23T07:20:48;13.40;99.90
41668;DHT22;27356;50.920;5.350;2023-03-23T07:23:14;13.40;99.90
41668;DHT22;27356;50.920;5.350;2023-03-23T07:25:40;13.50;99.90
41668;DHT22;27356;50.920;5.350;2023-03-23T07:28:06;13.50;99.90
41668;DHT22;27356;50.920;5.350;2023-03-23T07:30:32;13.50;99.90
41668;DHT22;27356;50.920;5.350;2023-03-23T07:32:58;13.60;99.90
41668;DHT22;27356;50.920;5.350;2023-03-23T07:35:24;13.70;99.90
41668;DHT22;27356;50.920;5.350;2023-03-23T07:37:51;13.80;99.90
41668;DHT22;27356;50.920;5.350;2023-03-23T07:40:18;13.80;99.90
41668;DHT22;27356;50.920;5.350;2023-03-23T07:42:45;13.80;99.90
41668;DHT22;27356;50.920;5.350;2023-03-23T07:45:15;13.80;99.90
41668;DHT22;27356;50.920;5.350;2023-03-23T07:47:41;13.80;99.90
41668;DHT22;27356;50.920;5.350;2023-03-23T07:50:08;13.80;99.90
41668;DHT22;27356;50.920;5.350;2023-03-23T07:52:35;13.70;99.90
41668;DHT22;27356;50.920;5.350;2023-03-23T07:55:01;13.80;99.90
41668;DHT22;27356;50.920;5.350;2023-03-23T07:57:29;13.70;99.90
41668;DHT22;27356;50.920;5.350;2023-03-23T07:59:56;13.80;99.90
41668;DHT22;27356;50.920;5.350;2023-03-23T08:02:23;13.80;99.90
41668;DHT22;27356;50.920;5.350;2023-03-23T08:04:49;13.90;99.90
41668;DHT22;27356;50.920;5.350;2023-03-23T08:07:16;14.00;99.90
41668;DHT22;27356;50.920;5.350;2023-03-23T08:09:45;14.00;99.90
41668;DHT22;27356;50.920;5.350;2023-03-23T08:12:11;13.90;99.90
41668;DHT22;27356;50.920;5.350;2023-03-23T08:14:37;13.90;99.90
41668;DHT22;27356;50.920;5.350;2023-03-23T08:17:04;13.80;99.90
41668;DHT22;27356;50.920;5.350;2023-03-23T08:19:30;13.80;99.90
41668;DHT22;27356;50.920;5.350;2023-03-23T08:21:56;13.80;99.90
41668;DHT22;27356;50.920;5.350;2023-03-23T08:24:22;13.80;99.90
41668;DHT22;27356;50.920;5.350;2023-03-23T08:26:48;13.80;99.90
41668;DHT22;27356;50.920;5.350;2023-03-23T08:29:14;13.80;99.90
41668;DHT22;27356;50.920;5.350;2023-03-23T08:31:41;13.80;99.90
41668;DHT22;27356;50.920;5.350;2023-03-23T08:34:07;13.80;99.90
41668;DHT22;27356;50.920;5.350;2023-03-23T08:36:34;14.00;99.90
41668;DHT22;27356;50.920;5.350;2023-03-23T08:39:00;13.90;99.90
41668;DHT22;27356;50.920;5.350;2023-03-23T08:41:26;13.80;99.90
41668;DHT22;27356;50.920;5.350;2023-03-23T08:43:52;13.60;99.90
41668;DHT22;27356;50.920;5.350;2023-03-23T08:46:18;13.50;99.90
41668;DHT22;27356;50.920;5.350;2023-03-23T08:48:45;13.40;99.90
41668;DHT22;27356;50.920;5.350;2023-03-23T08:51:11;13.40;99.90
41668;DHT22;27356;50.920;5.350;2023-03-23T08:53:37;13.40;99.90
41668;DHT22;27356;50.920;5.350;2023-03-23T08:56:05;13.20;99.90
41668;DHT22;27356;50.920;5.350;2023-03-23T08:58:31;13.10;99.90
41668;DHT22;27356;50.920;5.350;2023-03-23T09:00:57;12.90;99.90
41668;DHT22;27356;50.920;5.350;2023-03-23T09:03:24;12.80;99.90
41668;DHT22;27356;50.920;5.350;2023-03-23T09:05:50;12.70;99.90
41668;DHT22;27356;50.920;5.350;2023-03-23T09:08:15;12.70;99.90
41668;DHT22;27356;50.920;5.350;2023-03-23T09:10:41;12.40;99.90
41668;DHT22;27356;50.920;5.350;2023-03-23T09:13:07;12.20;99.90
41668;DHT22;27356;50.920;5.350;2023-03-23T09:15:33;12.00;99.90
41668;DHT22;27356;50.920;5.350;2023-03-23T09:17:58;11.80;99.90
41668;DHT22;27356;50.920;5.350;2023-03-23T09:20:27;11.60;99.90
41668;DHT22;27356;50.920;5.350;2023-03-23T09:22:54;11.60;99.90
41668;DHT22;27356;50.920;5.350;2023-03-23T09:25:23;11.50;99.90
41668;DHT22;27356;50.920;5.350;2023-03-23T09:27:53;11.60;99.90
41668;DHT22;27356;50.920;5.350;2023-03-23T09:30:25;11.60;99.90
41668;DHT22;27356;50.920;5.350;2023-03-23T09:32:52;11.80;99.90
41668;DHT22;27356;50.920;5.350;2023-03-23T09:35:18;12.00;99.90
41668;DHT22;27356;50.920;5.350;2023-03-23T09:37:45;12.20;99.90
41668;DHT22;27356;50.920;5.350;2023-03-23T09:40:17;12.30;99.90
41668;DHT22;27356;50.920;5.350;2023-03-23T09:43:13;12.40;99.90
41668;DHT22;27356;50.920;5.350;2023-03-23T09:53:41;12.40;99.90
41668;DHT22;27356;50.920;5.350;2023-03-23T09:56:12;12.20;99.90
41668;DHT22;27356;50.920;5.350;2023-03-23T09:59:18;12.20;99.90
41668;DHT22;27356;50.920;5.350;2023-03-23T10:01:48;12.30;99.90
41668;DHT22;27356;50.920;5.350;2023-03-23T10:04:38;12.20;99.90
41668;DHT22;27356;50.920;5.350;2023-03-23T10:07:23;12.20;99.90
41668;DHT22;27356;50.920;5.350;2023-03-23T10:09:53;12.20;99.90
41668;DHT22;27356;50.920;5.350;2023-03-23T10:15:32;12.80;99.90
41668;DHT22;27356;50.920;5.350;2023-03-23T10:18:15;13.00;99.90
41668;DHT22;27356;50.920;5.350;2023-03-23T10:20:58;12.90;99.90
41668;DHT22;27356;50.920;5.350;2023-03-23T10:26:28;13.00;99.90
41668;DHT22;27356;50.920;5.350;2023-03-23T10:28:59;13.20;99.90
41668;DHT22;27356;50.920;5.350;2023-03-23T10:31:34;13.30;99.90
41668;DHT22;27356;50.920;5.350;2023-03-23T10:34:30;13.20;99.90
41668;DHT22;27356;50.920;5.350;2023-03-23T10:37:00;13.20;99.90
41668;DHT22;27356;50.920;5.350;2023-03-23T10:40:06;13.20;99.90
41668;DHT22;27356;50.920;5.350;2023-03-23T10:42:33;13.30;99.90
41668;DHT22;27356;50.920;5.350;2023-03-23T10:45:20;13.30;99.90
41668;DHT22;27356;50.920;5.350;2023-03-23T10:48:18;13.20;99.90
41668;DHT22;27356;50.920;5.350;2023-03-23T10:50:49;13.40;99.90
41668;DHT22;27356;50.920;5.350;2023-03-23T10:53:22;13.50;99.90
41668;DHT22;27356;50.920;5.350;2023-03-23T10:55:49;13.60;99.90
41668;DHT22;27356;50.920;5.350;2023-03-23T10:58:33;13.70;99.90
41668;DHT22;27356;50.920;5.350;2023-03-23T11:01:01;13.80;99.90
41668;DHT22;27356;50.920;5.350;2023-03-23T11:03:41;13.80;99.90
41668;DHT22;27356;50.920;5.350;2023-03-23T11:06:29;13.80;99.90
41668;DHT22;27356;50.920;5.350;2023-03-23T11:09:13;13.60;99.90
41668;DHT22;27356;50.920;5.350;2023-03-23T11:11:43;13.40;99.90
41668;DHT22;27356;50.920;5.350;2023-03-23T11:14:26;13.40;99.90
41668;DHT22;27356;50.920;5.350;2023-03-23T11:17:01;13.20;99.90
41668;DHT22;27356;50.920;5.350;2023-03-23T11:21:55;13.40;99.90
41668;DHT22;27356;50.920;5.350;2023-03-23T11:24:25;13.40;99.90
41668;DHT22;27356;50.920;5.350;2023-03-23T11:26:52;13.50;99.90
41668;DHT22;27356;50.920;5.350;2023-03-23T11:29:27;13.30;99.90
41668;DHT22;27356;50.920;5.350;2023-03-23T11:32:05;13.40;99.90
41668;DHT22;27356;50.920;5.350;2023-03-23T11:34:35;13.40;99.90
41668;DHT22;27356;50.920;5.350;2023-03-23T11:40:00;13.70;99.90
41668;DHT22;27356;50.920;5.350;2023-03-23T11:42:56;14.00;99.90
41668;DHT22;27356;50.920;5.350;2023-03-23T11:56:23;15.60;99.90
41668;DHT22;27356;50.920;5.350;2023-03-23T11:58:54;15.50;99.90
41668;DHT22;27356;50.920;5.350;2023-03-23T12:01:48;15.50;99.90
41668;DHT22;27356;50.920;5.350;2023-03-23T12:12:55;15.70;99.90
41668;DHT22;27356;50.920;5.350;2023-03-23T12:18:06;16.00;99.90
41668;DHT22;27356;50.920;5.350;2023-03-23T12:21:04;15.90;99.90
41668;DHT22;27356;50.920;5.350;2023-03-23T12:32:40;16.30;99.90
41668;DHT22;27356;50.920;5.350;2023-03-23T12:38:15;16.50;99.90
41668;DHT22;27356;50.920;5.350;2023-03-23T12:49:19;16.00;99.90
41668;DHT22;27356;50.920;5.350;2023-03-23T13:00:25;15.90;99.90
41668;DHT22;27356;50.920;5.350;2023-03-23T13:02:54;15.80;99.90
41668;DHT22;27356;50.920;5.350;2023-03-23T13:08:00;16.10;99.90
41668;DHT22;27356;50.920;5.350;2023-03-23T13:10:32;16.10;99.90
41668;DHT22;27356;50.920;5.350;2023-03-23T13:12:59;16.50;99.90
41668;DHT22;27356;50.920;5.350;2023-03-23T13:23:53;16.30;99.90
41668;DHT22;27356;50.920;5.350;2023-03-23T13:26:20;16.00;99.90
41668;DHT22;27356;50.920;5.350;2023-03-23T13:31:33;15.80;99.90
41668;DHT22;27356;50.920;5.350;2023-03-23T13:39:29;15.20;99.90
41668;DHT22;27356;50.920;5.350;2023-03-23T13:50:03;14.30;99.90
41668;DHT22;27356;50.920;5.350;2023-03-23T13:55:31;14.30;99.90
41668;DHT22;27356;50.920;5.350;2023-03-23T14:03:25;14.50;99.90
41668;DHT22;27356;50.920;5.350;2023-03-23T14:08:25;14.60;99.90
41668;DHT22;27356;50.920;5.350;2023-03-23T14:11:25;14.60;99.90
41668;DHT22;27356;50.920;5.350;2023-03-23T14:14:05;14.60;99.90
41668;DHT22;27356;50.920;5.350;2023-03-23T14:19:02;14.60;99.90
41668;DHT22;27356;50.920;5.350;2023-03-23T14:21:33;14.70;99.90
41668;DHT22;27356;50.920;5.350;2023-03-23T14:24:15;14.70;99.90
41668;DHT22;27356;50.920;5.350;2023-03-23T14:26:47;14.80;99.90
41668;DHT22;27356;50.920;5.350;2023-03-23T14:29:14;15.10;99.90
41668;DHT22;27356;50.920;5.350;2023-03-23T14:31:40;15.30;99.90
41668;DHT22;27356;50.920;5.350;2023-03-23T14:34:14;15.50;99.90
41668;DHT22;27356;50.920;5.350;2023-03-23T14:36:41;15.70;99.90
41668;DHT22;27356;50.920;5.350;2023-03-23T14:39:24;15.70;99.90
41668;DHT22;27356;50.920;5.350;2023-03-23T14:41:53;15.90;99.90
41668;DHT22;27356;50.920;5.350;2023-03-23T14:44:29;15.90;99.90
41668;DHT22;27356;50.920;5.350;2023-03-23T14:46:57;15.80;99.90
41668;DHT22;27356;50.920;5.350;2023-03-23T14:49:34;15.80;99.90
41668;DHT22;27356;50.920;5.350;2023-03-23T14:54:36;15.80;99.90
41668;DHT22;27356;50.920;5.350;2023-03-23T14:57:12;15.70;99.90
41668;DHT22;27356;50.920;5.350;2023-03-23T14:59:46;15.70;99.90
41668;DHT22;27356;50.920;5.350;2023-03-23T15:02:20;15.80;99.90
41668;DHT22;27356;50.920;5.350;2023-03-23T15:04:54;15.90;99.90
41668;DHT22;27356;50.920;5.350;2023-03-23T15:07:21;16.00;99.90
41668;DHT22;27356;50.920;5.350;2023-03-23T15:09:49;15.90;99.90
41668;DHT22;27356;50.920;5.350;2023-03-23T15:12:27;15.80;99.90
41668;DHT22;27356;50.920;5.350;2023-03-23T15:14:57;15.90;99.90
41668;DHT22;27356;50.920;5.350;2023-03-23T15:17:25;15.90;99.90
41668;DHT22;27356;50.920;5.350;2023-03-23T15:19:53;15.90;99.90
41668;DHT22;27356;50.920;5.350;2023-03-23T15:22:29;16.00;99.90
41668;DHT22;27356;50.920;5.350;2023-03-23T15:27:41;16.00;99.90
41668;DHT22;27356;50.920;5.350;2023-03-23T15:32:53;16.00;99.90
41668;DHT22;27356;50.920;5.350;2023-03-23T15:35:22;16.00;99.90
41668;DHT22;27356;50.920;5.350;2023-03-23T15:38:03;16.10;99.90
41668;DHT22;27356;50.920;5.350;2023-03-23T15:40:37;16.10;99.90
41668;DHT22;27356;50.920;5.350;2023-03-23T15:43:32;16.20;99.90
41668;DHT22;27356;50.920;5.350;2023-03-23T15:46:18;16.10;99.90
41668;DHT22;27356;50.920;5.350;2023-03-23T15:51:38;16.00;99.90
41668;DHT22;27356;50.920;5.350;2023-03-23T15:54:07;16.00;99.90
41668;DHT22;27356;50.920;5.350;2023-03-23T15:56:34;16.20;99.90
41668;DHT22;27356;50.920;5.350;2023-03-23T15:59:00;16.30;99.90
41668;DHT22;27356;50.920;5.350;2023-03-23T16:01:28;16.30;99.90
41668;DHT22;27356;50.920;5.350;2023-03-23T16:04:05;16.20;99.90
41668;DHT22;27356;50.920;5.350;2023-03-23T16:06:33;16.20;99.90
41668;DHT22;27356;50.920;5.350;2023-03-23T16:09:00;16.20;99.90
41668;DHT22;27356;50.920;5.350;2023-03-23T16:11:28;16.20;99.90
41668;DHT22;27356;50.920;5.350;2023-03-23T16:13:56;16.00;99.90
41668;DHT22;27356;50.920;5.350;2023-03-23T16:16:27;16.00;99.90
41668;DHT22;27356;50.920;5.350;2023-03-23T16:18:54;15.90;99.90
41668;DHT22;27356;50.920;5.350;2023-03-23T16:21:20;15.80;99.90
41668;DHT22;27356;50.920;5.350;2023-03-23T16:23:46;15.90;99.90
41668;DHT22;27356;50.920;5.350;2023-03-23T16:26:13;15.90;99.90
41668;DHT22;27356;50.920;5.350;2023-03-23T16:28:39;15.90;99.90
41668;DHT22;27356;50.920;5.350;2023-03-23T16:31:05;15.90;99.90
41668;DHT22;27356;50.920;5.350;2023-03-23T16:33:31;15.90;99.90
41668;DHT22;27356;50.920;5.350;2023-03-23T16:35:57;16.00;99.90
41668;DHT22;27356;50.920;5.350;2023-03-23T16:38:23;15.90;99.90
41668;DHT22;27356;50.920;5.350;2023-03-23T16:40:49;15.80;99.90
41668;DHT22;27356;50.920;5.350;2023-03-23T16:43:15;15.80;99.90
41668;DHT22;27356;50.920;5.350;2023-03-23T16:45:43;15.90;99.90
41668;DHT22;27356;50.920;5.350;2023-03-23T16:48:10;16.00;99.90
41668;DHT22;27356;50.920;5.350;2023-03-23T16:50:37;16.00;99.90
41668;DHT22;27356;50.920;5.350;2023-03-23T16:53:04;16.00;99.90
41668;DHT22;27356;50.920;5.350;2023-03-23T16:55:31;16.00;99.90
41668;DHT22;27356;50.920;5.350;2023-03-23T16:57:57;15.90;99.90
41668;DHT22;27356;50.920;5.350;2023-03-23T17:00:23;16.00;99.90
41668;DHT22;27356;50.920;5.350;2023-03-23T17:02:53;15.80;99.90
41668;DHT22;27356;50.920;5.350;2023-03-23T17:05:22;15.70;99.90
41668;DHT22;27356;50.920;5.350;2023-03-23T17:07:49;15.80;99.90
41668;DHT22;27356;50.920;5.350;2023-03-23T17:10:15;15.80;99.90
41668;DHT22;27356;50.920;5.350;2023-03-23T17:12:42;15.70;99.90
41668;DHT22;27356;50.920;5.350;2023-03-23T17:15:09;15.60;99.90
41668;DHT22;27356;50.920;5.350;2023-03-23T17:17:36;15.60;99.90
41668;DHT22;27356;50.920;5.350;2023-03-23T17:20:02;15.60;99.90
41668;DHT22;27356;50.920;5.350;2023-03-23T17:22:28;15.50;99.90
41668;DHT22;27356;50.920;5.350;2023-03-23T17:24:54;15.50;99.90
41668;DHT22;27356;50.920;5.350;2023-03-23T17:27:22;15.60;99.90
41668;DHT22;27356;50.920;5.350;2023-03-23T17:29:48;15.50;99.90
41668;DHT22;27356;50.920;5.350;2023-03-23T17:32:14;15.70;99.90
41668;DHT22;27356;50.920;5.350;2023-03-23T17:34:40;15.60;99.90
41668;DHT22;27356;50.920;5.350;2023-03-23T17:37:06;15.50;99.90
41668;DHT22;27356;50.920;5.350;2023-03-23T17:39:33;15.40;99.90
41668;DHT22;27356;50.920;5.350;2023-03-23T17:42:00;15.30;99.90
41668;DHT22;27356;50.920;5.350;2023-03-23T17:44:26;15.30;99.90
41668;DHT22;27356;50.920;5.350;2023-03-23T17:46:52;15.40;99.90
41668;DHT22;27356;50.920;5.350;2023-03-23T17:49:21;15.30;99.90
41668;DHT22;27356;50.920;5.350;2023-03-23T17:51:47;15.20;99.90
41668;DHT22;27356;50.920;5.350;2023-03-23T17:54:12;15.20;99.90
41668;DHT22;27356;50.920;5.350;2023-03-23T17:56:38;15.10;99.90
41668;DHT22;27356;50.920;5.350;2023-03-23T17:59:04;15.20;99.90
41668;DHT22;27356;50.920;5.350;2023-03-23T18:01:31;15.10;99.90
41668;DHT22;27356;50.920;5.350;2023-03-23T18:03:57;14.90;99.90
41668;DHT22;27356;50.920;5.350;2023-03-23T18:06:23;15.00;99.90
41668;DHT22;27356;50.920;5.350;2023-03-23T18:08:49;14.90;99.90
41668;DHT22;27356;50.920;5.350;2023-03-23T18:11:14;14.90;99.90
41668;DHT22;27356;50.920;5.350;2023-03-23T18:13:47;14.90;99.90
41668;DHT22;27356;50.920;5.350;2023-03-23T18:16:13;15.00;99.90
41668;DHT22;27356;50.920;5.350;2023-03-23T18:18:39;15.00;99.90